sensor_id;sensor_type;location;lat;lon;timestamp;P1;durP1;ratioP1;P2;durP2;ratioP2
54123;SDS011;55741;53.252;5.788;2022-07-03T00:01:56;8.98;;;5.03;;
54123;SDS011;55741;53.252;5.788;2022-07-03T00:04:22;12.05;;;4.97;;
54123;SDS011;55741;53.252;5.788;2022-07-03T00:06:48;7.28;;;4.95;;
54123;SDS011;55741;53.252;5.788;2022-07-03T00:09:14;6.63;;;4.72;;
54123;SDS011;55741;53.252;5.788;2022-07-03T00:11:41;5.60;;;3.97;;
54123;SDS011;55741;53.252;5.788;2022-07-03T00:14:13;9.02;;;4.72;;
54123;SDS011;55741;53.252;5.788;2022-07-03T00:16:39;7.90;;;4.93;;
54123;SDS011;55741;53.252;5.788;2022-07-03T00:19:05;8.30;;;5.50;;
54123;SDS011;55741;53.252;5.788;2022-07-03T00:21:38;9.05;;;5.00;;
54123;SDS011;55741;53.252;5.788;2022-07-03T00:26:56;6.28;;;5.00;;
54123;SDS011;55741;53.252;5.788;2022-07-03T00:29:25;6.50;;;4.60;;
54123;SDS011;55741;53.252;5.788;2022-07-03T00:31:56;5.95;;;4.60;;
54123;SDS011;55741;53.252;5.788;2022-07-03T00:34:28;8.13;;;4.32;;
54123;SDS011;55741;53.252;5.788;2022-07-03T00:36:55;6.38;;;3.90;;
54123;SDS011;55741;53.252;5.788;2022-07-03T00:39:22;6.00;;;4.57;;
54123;SDS011;55741;53.252;5.788;2022-07-03T00:41:49;7.03;;;4.88;;
54123;SDS011;55741;53.252;5.788;2022-07-03T00:44:25;6.85;;;4.82;;
54123;SDS011;55741;53.252;5.788;2022-07-03T00:46:53;5.95;;;4.85;;
54123;SDS011;55741;53.252;5.788;2022-07-03T00:49:22;8.38;;;5.03;;
54123;SDS011;55741;53.252;5.788;2022-07-03T00:51:51;8.85;;;5.20;;
54123;SDS011;55741;53.252;5.788;2022-07-03T00:54:19;10.32;;;5.72;;
54123;SDS011;55741;53.252;5.788;2022-07-03T00:56:49;9.45;;;5.40;;
54123;SDS011;55741;53.252;5.788;2022-07-03T00:59:17;8.68;;;6.30;;
54123;SDS011;55741;53.252;5.788;2022-07-03T01:01:44;6.03;;;5.10;;
54123;SDS011;55741;53.252;5.788;2022-07-03T01:07:02;6.38;;;5.38;;
54123;SDS011;55741;53.252;5.788;2022-07-03T01:09:55;9.48;;;4.80;;
54123;SDS011;55741;53.252;5.788;2022-07-03T01:14:58;6.88;;;4.97;;
54123;SDS011;55741;53.252;5.788;2022-07-03T01:17:34;6.88;;;5.18;;
54123;SDS011;55741;53.252;5.788;2022-07-03T01:20:09;7.20;;;5.50;;
54123;SDS011;55741;53.252;5.788;2022-07-03T01:22:42;10.52;;;5.93;;
54123;SDS011;55741;53.252;5.788;2022-07-03T01:25:24;6.47;;;5.22;;
54123;SDS011;55741;53.252;5.788;2022-07-03T01:30:53;10.75;;;5.78;;
54123;SDS011;55741;53.252;5.788;2022-07-03T01:33:21;8.15;;;6.07;;
54123;SDS011;55741;53.252;5.788;2022-07-03T01:38:17;6.30;;;5.47;;
54123;SDS011;55741;53.252;5.788;2022-07-03T01:40:46;6.75;;;4.88;;
54123;SDS011;55741;53.252;5.788;2022-07-03T01:43:16;8.50;;;4.78;;
54123;SDS011;55741;53.252;5.788;2022-07-03T01:45:47;7.32;;;4.88;;
54123;SDS011;55741;53.252;5.788;2022-07-03T01:48:13;6.13;;;4.78;;
54123;SDS011;55741;53.252;5.788;2022-07-03T01:50:40;7.40;;;5.45;;
54123;SDS011;55741;53.252;5.788;2022-07-03T01:53:09;10.38;;;5.82;;
54123;SDS011;55741;53.252;5.788;2022-07-03T01:55:40;7.32;;;5.20;;
54123;SDS011;55741;53.252;5.788;2022-07-03T01:58:07;7.63;;;5.60;;
54123;SDS011;55741;53.252;5.788;2022-07-03T02:00:54;10.95;;;5.40;;
54123;SDS011;55741;53.252;5.788;2022-07-03T02:03:27;7.65;;;4.93;;
54123;SDS011;55741;53.252;5.788;2022-07-03T02:06:02;6.47;;;5.07;;
54123;SDS011;55741;53.252;5.788;2022-07-03T02:11:26;7.05;;;4.10;;
54123;SDS011;55741;53.252;5.788;2022-07-03T02:14:10;9.00;;;4.72;;
54123;SDS011;55741;53.252;5.788;2022-07-03T02:16:49;7.80;;;4.38;;
54123;SDS011;55741;53.252;5.788;2022-07-03T02:19:36;6.57;;;4.72;;
54123;SDS011;55741;53.252;5.788;2022-07-03T02:22:21;8.60;;;4.65;;
54123;SDS011;55741;53.252;5.788;2022-07-03T02:25:02;5.35;;;4.55;;
54123;SDS011;55741;53.252;5.788;2022-07-03T02:27:32;6.70;;;4.70;;
54123;SDS011;55741;53.252;5.788;2022-07-03T02:30:09;6.97;;;4.53;;
54123;SDS011;55741;53.252;5.788;2022-07-03T02:32:42;6.20;;;4.80;;
54123;SDS011;55741;53.252;5.788;2022-07-03T02:35:17;6.25;;;4.40;;
54123;SDS011;55741;53.252;5.788;2022-07-03T02:38:06;5.90;;;4.10;;
54123;SDS011;55741;53.252;5.788;2022-07-03T02:46:46;6.20;;;4.80;;
54123;SDS011;55741;53.252;5.788;2022-07-03T02:49:11;7.15;;;5.20;;
54123;SDS011;55741;53.252;5.788;2022-07-03T02:51:50;7.70;;;5.03;;
54123;SDS011;55741;53.252;5.788;2022-07-03T02:54:25;7.50;;;5.70;;
54123;SDS011;55741;53.252;5.788;2022-07-03T02:57:00;6.47;;;4.85;;
54123;SDS011;55741;53.252;5.788;2022-07-03T02:59:39;5.80;;;4.53;;
54123;SDS011;55741;53.252;5.788;2022-07-03T03:05:09;6.45;;;4.88;;
54123;SDS011;55741;53.252;5.788;2022-07-03T03:10:28;9.75;;;4.70;;
54123;SDS011;55741;53.252;5.788;2022-07-03T03:12:58;6.82;;;4.10;;
54123;SDS011;55741;53.252;5.788;2022-07-03T03:15:30;8.60;;;4.45;;
54123;SDS011;55741;53.252;5.788;2022-07-03T03:18:00;8.27;;;4.63;;
54123;SDS011;55741;53.252;5.788;2022-07-03T03:20:34;9.05;;;3.80;;
54123;SDS011;55741;53.252;5.788;2022-07-03T03:26:14;8.68;;;4.90;;
54123;SDS011;55741;53.252;5.788;2022-07-03T03:28:44;5.60;;;4.82;;
54123;SDS011;55741;53.252;5.788;2022-07-03T03:31:09;7.40;;;5.38;;
54123;SDS011;55741;53.252;5.788;2022-07-03T03:33:42;8.20;;;5.05;;
54123;SDS011;55741;53.252;5.788;2022-07-03T03:36:10;7.15;;;5.03;;
54123;SDS011;55741;53.252;5.788;2022-07-03T03:38:38;7.93;;;5.05;;
54123;SDS011;55741;53.252;5.788;2022-07-03T03:41:05;7.45;;;5.20;;
54123;SDS011;55741;53.252;5.788;2022-07-03T03:43:32;8.00;;;5.20;;
54123;SDS011;55741;53.252;5.788;2022-07-03T03:45:58;7.00;;;4.97;;
54123;SDS011;55741;53.252;5.788;2022-07-03T03:48:28;8.43;;;5.18;;
54123;SDS011;55741;53.252;5.788;2022-07-03T03:50:56;8.38;;;5.28;;
54123;SDS011;55741;53.252;5.788;2022-07-03T03:53:23;9.30;;;5.38;;
54123;SDS011;55741;53.252;5.788;2022-07-03T03:55:52;6.68;;;5.25;;
54123;SDS011;55741;53.252;5.788;2022-07-03T03:58:30;8.40;;;5.85;;
54123;SDS011;55741;53.252;5.788;2022-07-03T04:00:58;7.47;;;5.43;;
54123;SDS011;55741;53.252;5.788;2022-07-03T04:03:25;7.53;;;5.88;;
54123;SDS011;55741;53.252;5.788;2022-07-03T04:05:52;8.25;;;5.45;;
54123;SDS011;55741;53.252;5.788;2022-07-03T04:08:19;8.75;;;5.68;;
54123;SDS011;55741;53.252;5.788;2022-07-03T04:10:46;8.73;;;5.28;;
54123;SDS011;55741;53.252;5.788;2022-07-03T04:13:12;7.18;;;5.40;;
54123;SDS011;55741;53.252;5.788;2022-07-03T04:15:39;5.40;;;4.80;;
54123;SDS011;55741;53.252;5.788;2022-07-03T04:18:05;6.25;;;5.07;;
54123;SDS011;55741;53.252;5.788;2022-07-03T04:20:31;7.40;;;4.70;;
54123;SDS011;55741;53.252;5.788;2022-07-03T04:22:57;7.45;;;4.70;;
54123;SDS011;55741;53.252;5.788;2022-07-03T04:25:23;6.95;;;4.45;;
54123;SDS011;55741;53.252;5.788;2022-07-03T04:27:49;10.30;;;5.40;;
54123;SDS011;55741;53.252;5.788;2022-07-03T04:30:15;6.22;;;5.05;;
54123;SDS011;55741;53.252;5.788;2022-07-03T04:32:41;9.68;;;5.45;;
54123;SDS011;55741;53.252;5.788;2022-07-03T04:35:07;9.23;;;5.00;;
54123;SDS011;55741;53.252;5.788;2022-07-03T04:37:34;6.68;;;5.18;;
54123;SDS011;55741;53.252;5.788;2022-07-03T04:40:00;6.28;;;5.05;;
54123;SDS011;55741;53.252;5.788;2022-07-03T04:42:26;6.72;;;4.90;;
54123;SDS011;55741;53.252;5.788;2022-07-03T04:44:51;9.90;;;5.30;;
54123;SDS011;55741;53.252;5.788;2022-07-03T04:47:17;6.00;;;4.78;;
54123;SDS011;55741;53.252;5.788;2022-07-03T04:49:44;6.45;;;5.15;;
54123;SDS011;55741;53.252;5.788;2022-07-03T04:52:10;7.88;;;4.72;;
54123;SDS011;55741;53.252;5.788;2022-07-03T04:54:36;8.95;;;4.90;;
54123;SDS011;55741;53.252;5.788;2022-07-03T04:57:03;6.45;;;5.25;;
54123;SDS011;55741;53.252;5.788;2022-07-03T04:59:30;6.32;;;5.50;;
54123;SDS011;55741;53.252;5.788;2022-07-03T05:01:55;5.93;;;4.75;;
54123;SDS011;55741;53.252;5.788;2022-07-03T05:04:21;6.57;;;4.97;;
54123;SDS011;55741;53.252;5.788;2022-07-03T05:06:47;9.73;;;5.25;;
54123;SDS011;55741;53.252;5.788;2022-07-03T05:09:13;10.65;;;5.00;;
54123;SDS011;55741;53.252;5.788;2022-07-03T05:11:39;5.93;;;5.10;;
54123;SDS011;55741;53.252;5.788;2022-07-03T05:14:06;7.38;;;4.93;;
54123;SDS011;55741;53.252;5.788;2022-07-03T05:16:33;10.10;;;5.57;;
54123;SDS011;55741;53.252;5.788;2022-07-03T05:18:58;8.65;;;4.70;;
54123;SDS011;55741;53.252;5.788;2022-07-03T05:21:25;7.82;;;4.60;;
54123;SDS011;55741;53.252;5.788;2022-07-03T05:23:51;8.90;;;4.55;;
54123;SDS011;55741;53.252;5.788;2022-07-03T05:26:17;9.55;;;4.88;;
54123;SDS011;55741;53.252;5.788;2022-07-03T05:28:43;4.72;;;3.80;;
54123;SDS011;55741;53.252;5.788;2022-07-03T05:31:10;4.82;;;3.92;;
54123;SDS011;55741;53.252;5.788;2022-07-03T05:33:36;5.90;;;4.00;;
54123;SDS011;55741;53.252;5.788;2022-07-03T05:36:02;7.68;;;4.07;;
54123;SDS011;55741;53.252;5.788;2022-07-03T05:38:29;5.45;;;4.13;;
54123;SDS011;55741;53.252;5.788;2022-07-03T05:41:14;10.27;;;4.40;;
54123;SDS011;55741;53.252;5.788;2022-07-03T05:43:40;9.82;;;4.40;;
54123;SDS011;55741;53.252;5.788;2022-07-03T05:46:06;8.27;;;4.32;;
54123;SDS011;55741;53.252;5.788;2022-07-03T05:48:32;8.68;;;4.30;;
54123;SDS011;55741;53.252;5.788;2022-07-03T05:50:58;8.68;;;4.05;;
54123;SDS011;55741;53.252;5.788;2022-07-03T05:53:24;9.75;;;4.15;;
54123;SDS011;55741;53.252;5.788;2022-07-03T05:55:50;8.07;;;4.05;;
54123;SDS011;55741;53.252;5.788;2022-07-03T05:58:18;5.40;;;3.75;;
54123;SDS011;55741;53.252;5.788;2022-07-03T06:00:44;6.55;;;3.70;;
54123;SDS011;55741;53.252;5.788;2022-07-03T06:03:10;6.85;;;3.83;;
54123;SDS011;55741;53.252;5.788;2022-07-03T06:05:35;7.88;;;3.40;;
54123;SDS011;55741;53.252;5.788;2022-07-03T06:08:02;4.32;;;2.75;;
54123;SDS011;55741;53.252;5.788;2022-07-03T06:10:28;5.38;;;2.80;;
54123;SDS011;55741;53.252;5.788;2022-07-03T06:12:54;9.32;;;2.88;;
54123;SDS011;55741;53.252;5.788;2022-07-03T06:15:20;4.05;;;2.47;;
54123;SDS011;55741;53.252;5.788;2022-07-03T06:17:46;4.50;;;2.22;;
54123;SDS011;55741;53.252;5.788;2022-07-03T06:20:12;7.68;;;2.42;;
54123;SDS011;55741;53.252;5.788;2022-07-03T06:22:38;6.30;;;2.30;;
54123;SDS011;55741;53.252;5.788;2022-07-03T06:25:06;5.93;;;2.30;;
54123;SDS011;55741;53.252;5.788;2022-07-03T06:27:32;10.98;;;2.15;;
54123;SDS011;55741;53.252;5.788;2022-07-03T06:29:58;5.93;;;1.70;;
54123;SDS011;55741;53.252;5.788;2022-07-03T06:32:25;8.57;;;2.30;;
54123;SDS011;55741;53.252;5.788;2022-07-03T06:34:51;5.35;;;1.92;;
54123;SDS011;55741;53.252;5.788;2022-07-03T06:37:17;5.35;;;1.50;;
54123;SDS011;55741;53.252;5.788;2022-07-03T06:39:43;6.22;;;1.48;;
54123;SDS011;55741;53.252;5.788;2022-07-03T06:42:09;4.68;;;1.80;;
54123;SDS011;55741;53.252;5.788;2022-07-03T06:44:35;8.27;;;1.70;;
54123;SDS011;55741;53.252;5.788;2022-07-03T06:47:01;6.35;;;1.90;;
54123;SDS011;55741;53.252;5.788;2022-07-03T06:49:28;5.25;;;1.60;;
54123;SDS011;55741;53.252;5.788;2022-07-03T06:51:57;5.57;;;1.88;;
54123;SDS011;55741;53.252;5.788;2022-07-03T06:54:23;5.38;;;1.52;;
54123;SDS011;55741;53.252;5.788;2022-07-03T06:56:49;5.07;;;1.70;;
54123;SDS011;55741;53.252;5.788;2022-07-03T06:59:16;6.13;;;1.70;;
54123;SDS011;55741;53.252;5.788;2022-07-03T07:01:42;6.70;;;1.90;;
54123;SDS011;55741;53.252;5.788;2022-07-03T07:04:08;6.03;;;1.83;;
54123;SDS011;55741;53.252;5.788;2022-07-03T07:06:34;4.35;;;2.05;;
54123;SDS011;55741;53.252;5.788;2022-07-03T07:09:00;4.65;;;1.85;;
54123;SDS011;55741;53.252;5.788;2022-07-03T07:11:26;7.32;;;1.80;;
54123;SDS011;55741;53.252;5.788;2022-07-03T07:13:52;4.90;;;2.08;;
54123;SDS011;55741;53.252;5.788;2022-07-03T07:16:18;6.90;;;2.40;;
54123;SDS011;55741;53.252;5.788;2022-07-03T07:18:44;5.70;;;1.73;;
54123;SDS011;55741;53.252;5.788;2022-07-03T07:21:10;8.43;;;1.92;;
54123;SDS011;55741;53.252;5.788;2022-07-03T07:23:36;5.80;;;1.92;;
54123;SDS011;55741;53.252;5.788;2022-07-03T07:26:02;10.88;;;2.00;;
54123;SDS011;55741;53.252;5.788;2022-07-03T07:28:29;7.70;;;2.15;;
54123;SDS011;55741;53.252;5.788;2022-07-03T07:30:55;16.50;;;8.07;;
54123;SDS011;55741;53.252;5.788;2022-07-03T07:33:23;8.52;;;2.20;;
54123;SDS011;55741;53.252;5.788;2022-07-03T07:35:49;9.18;;;1.73;;
54123;SDS011;55741;53.252;5.788;2022-07-03T07:38:15;7.32;;;1.77;;
54123;SDS011;55741;53.252;5.788;2022-07-03T07:40:42;7.10;;;2.90;;
54123;SDS011;55741;53.252;5.788;2022-07-03T07:43:08;6.65;;;1.95;;
54123;SDS011;55741;53.252;5.788;2022-07-03T07:45:34;5.00;;;1.83;;
54123;SDS011;55741;53.252;5.788;2022-07-03T07:48:00;11.13;;;2.13;;
54123;SDS011;55741;53.252;5.788;2022-07-03T07:50:29;6.75;;;1.92;;
54123;SDS011;55741;53.252;5.788;2022-07-03T07:52:55;5.93;;;1.90;;
54123;SDS011;55741;53.252;5.788;2022-07-03T07:55:21;5.05;;;1.75;;
54123;SDS011;55741;53.252;5.788;2022-07-03T07:57:47;6.65;;;1.52;;
54123;SDS011;55741;53.252;5.788;2022-07-03T08:00:16;5.55;;;2.13;;
54123;SDS011;55741;53.252;5.788;2022-07-03T08:02:44;8.15;;;2.33;;
54123;SDS011;55741;53.252;5.788;2022-07-03T08:05:29;6.25;;;2.20;;
54123;SDS011;55741;53.252;5.788;2022-07-03T08:08:06;10.15;;;2.45;;
54123;SDS011;55741;53.252;5.788;2022-07-03T08:10:45;9.98;;;2.10;;
54123;SDS011;55741;53.252;5.788;2022-07-03T08:13:13;6.15;;;2.20;;
54123;SDS011;55741;53.252;5.788;2022-07-03T08:15:41;6.50;;;1.90;;
54123;SDS011;55741;53.252;5.788;2022-07-03T08:18:08;7.60;;;2.08;;
54123;SDS011;55741;53.252;5.788;2022-07-03T08:20:34;7.75;;;2.08;;
54123;SDS011;55741;53.252;5.788;2022-07-03T08:23:01;6.97;;;1.67;;
54123;SDS011;55741;53.252;5.788;2022-07-03T08:25:27;5.60;;;1.80;;
54123;SDS011;55741;53.252;5.788;2022-07-03T08:27:53;7.95;;;2.22;;
54123;SDS011;55741;53.252;5.788;2022-07-03T08:30:19;6.35;;;1.85;;
54123;SDS011;55741;53.252;5.788;2022-07-03T08:32:45;9.18;;;2.85;;
54123;SDS011;55741;53.252;5.788;2022-07-03T08:35:13;8.68;;;2.25;;
54123;SDS011;55741;53.252;5.788;2022-07-03T08:37:39;8.85;;;2.25;;
54123;SDS011;55741;53.252;5.788;2022-07-03T08:40:07;7.80;;;1.70;;
54123;SDS011;55741;53.252;5.788;2022-07-03T08:42:34;10.05;;;2.28;;
54123;SDS011;55741;53.252;5.788;2022-07-03T08:45:03;6.50;;;2.33;;
54123;SDS011;55741;53.252;5.788;2022-07-03T08:47:32;5.70;;;2.10;;
54123;SDS011;55741;53.252;5.788;2022-07-03T08:50:00;7.82;;;2.20;;
54123;SDS011;55741;53.252;5.788;2022-07-03T08:52:27;10.18;;;2.28;;
54123;SDS011;55741;53.252;5.788;2022-07-03T08:54:53;7.78;;;2.08;;
54123;SDS011;55741;53.252;5.788;2022-07-03T08:57:19;7.57;;;2.03;;
54123;SDS011;55741;53.252;5.788;2022-07-03T08:59:48;7.75;;;2.00;;
54123;SDS011;55741;53.252;5.788;2022-07-03T09:02:18;7.00;;;2.20;;
54123;SDS011;55741;53.252;5.788;2022-07-03T09:04:46;5.63;;;1.77;;
54123;SDS011;55741;53.252;5.788;2022-07-03T09:07:12;6.38;;;2.40;;
54123;SDS011;55741;53.252;5.788;2022-07-03T09:09:39;7.75;;;2.55;;
54123;SDS011;55741;53.252;5.788;2022-07-03T09:12:05;7.40;;;2.13;;
54123;SDS011;55741;53.252;5.788;2022-07-03T09:14:31;13.57;;;2.78;;
54123;SDS011;55741;53.252;5.788;2022-07-03T09:16:58;12.20;;;2.30;;
54123;SDS011;55741;53.252;5.788;2022-07-03T09:24:50;6.00;;;2.08;;
54123;SDS011;55741;53.252;5.788;2022-07-03T09:27:50;8.20;;;2.83;;
54123;SDS011;55741;53.252;5.788;2022-07-03T09:30:17;8.18;;;2.38;;
54123;SDS011;55741;53.252;5.788;2022-07-03T09:32:45;9.18;;;2.95;;
54123;SDS011;55741;53.252;5.788;2022-07-03T09:37:47;9.35;;;2.53;;
54123;SDS011;55741;53.252;5.788;2022-07-03T09:40:14;10.23;;;2.72;;
54123;SDS011;55741;53.252;5.788;2022-07-03T09:42:56;9.32;;;2.47;;
54123;SDS011;55741;53.252;5.788;2022-07-03T09:45:23;8.30;;;2.97;;
54123;SDS011;55741;53.252;5.788;2022-07-03T09:47:49;8.75;;;3.03;;
54123;SDS011;55741;53.252;5.788;2022-07-03T09:50:15;10.88;;;3.05;;
54123;SDS011;55741;53.252;5.788;2022-07-03T09:57:37;8.35;;;2.95;;
54123;SDS011;55741;53.252;5.788;2022-07-03T10:00:30;8.35;;;2.38;;
54123;SDS011;55741;53.252;5.788;2022-07-03T10:03:07;6.90;;;2.47;;
54123;SDS011;55741;53.252;5.788;2022-07-03T10:05:41;9.07;;;2.50;;
54123;SDS011;55741;53.252;5.788;2022-07-03T10:08:14;13.15;;;3.30;;
54123;SDS011;55741;53.252;5.788;2022-07-03T10:10:48;9.27;;;2.58;;
54123;SDS011;55741;53.252;5.788;2022-07-03T10:13:14;8.07;;;2.45;;
54123;SDS011;55741;53.252;5.788;2022-07-03T10:15:41;9.27;;;3.38;;
54123;SDS011;55741;53.252;5.788;2022-07-03T10:18:09;8.05;;;2.55;;
54123;SDS011;55741;53.252;5.788;2022-07-03T10:23:08;6.22;;;2.15;;
54123;SDS011;55741;53.252;5.788;2022-07-03T10:25:35;11.98;;;2.78;;
54123;SDS011;55741;53.252;5.788;2022-07-03T10:28:02;12.48;;;3.17;;
54123;SDS011;55741;53.252;5.788;2022-07-03T10:30:30;8.93;;;2.70;;
54123;SDS011;55741;53.252;5.788;2022-07-03T10:32:56;6.95;;;2.30;;
54123;SDS011;55741;53.252;5.788;2022-07-03T10:43:48;5.82;;;1.98;;
54123;SDS011;55741;53.252;5.788;2022-07-03T10:46:36;6.93;;;1.88;;
54123;SDS011;55741;53.252;5.788;2022-07-03T10:49:11;6.35;;;1.85;;
54123;SDS011;55741;53.252;5.788;2022-07-03T11:02:18;6.38;;;1.77;;
54123;SDS011;55741;53.252;5.788;2022-07-03T11:07:28;5.38;;;1.70;;
54123;SDS011;55741;53.252;5.788;2022-07-03T11:13:35;4.47;;;1.70;;
54123;SDS011;55741;53.252;5.788;2022-07-03T11:15:46;5.43;;;2.00;;
54123;SDS011;55741;53.252;5.788;2022-07-03T11:18:31;7.95;;;1.80;;
54123;SDS011;55741;53.252;5.788;2022-07-03T11:21:10;5.75;;;1.90;;
54123;SDS011;55741;53.252;5.788;2022-07-03T11:26:45;5.90;;;1.42;;
54123;SDS011;55741;53.252;5.788;2022-07-03T11:29:27;4.80;;;1.70;;
54123;SDS011;55741;53.252;5.788;2022-07-03T11:31:54;4.47;;;1.67;;
54123;SDS011;55741;53.252;5.788;2022-07-03T11:34:20;5.85;;;1.90;;
54123;SDS011;55741;53.252;5.788;2022-07-03T11:36:46;6.35;;;1.77;;
54123;SDS011;55741;53.252;5.788;2022-07-03T11:39:13;3.47;;;1.55;;
54123;SDS011;55741;53.252;5.788;2022-07-03T11:41:42;4.90;;;1.70;;
54123;SDS011;55741;53.252;5.788;2022-07-03T11:44:10;4.18;;;1.50;;
54123;SDS011;55741;53.252;5.788;2022-07-03T11:46:41;6.53;;;1.67;;
54123;SDS011;55741;53.252;5.788;2022-07-03T11:49:16;5.30;;;1.77;;
54123;SDS011;55741;53.252;5.788;2022-07-03T11:51:54;5.22;;;2.03;;
54123;SDS011;55741;53.252;5.788;2022-07-03T11:54:21;6.43;;;1.70;;
54123;SDS011;55741;53.252;5.788;2022-07-03T11:56:47;4.20;;;1.75;;
54123;SDS011;55741;53.252;5.788;2022-07-03T11:59:13;4.30;;;1.70;;
54123;SDS011;55741;53.252;5.788;2022-07-03T12:01:39;5.93;;;2.10;;
54123;SDS011;55741;53.252;5.788;2022-07-03T12:06:40;6.05;;;1.88;;
54123;SDS011;55741;53.252;5.788;2022-07-03T12:09:20;5.47;;;1.70;;
54123;SDS011;55741;53.252;5.788;2022-07-03T12:11:59;6.53;;;1.90;;
54123;SDS011;55741;53.252;5.788;2022-07-03T12:14:39;6.78;;;1.63;;
54123;SDS011;55741;53.252;5.788;2022-07-03T12:17:06;4.70;;;1.60;;
54123;SDS011;55741;53.252;5.788;2022-07-03T12:19:34;3.67;;;1.60;;
54123;SDS011;55741;53.252;5.788;2022-07-03T12:22:02;3.17;;;1.60;;
54123;SDS011;55741;53.252;5.788;2022-07-03T12:24:28;5.15;;;1.55;;
54123;SDS011;55741;53.252;5.788;2022-07-03T12:26:54;5.35;;;1.60;;
54123;SDS011;55741;53.252;5.788;2022-07-03T12:29:20;6.22;;;1.73;;
54123;SDS011;55741;53.252;5.788;2022-07-03T12:31:47;3.85;;;1.60;;
54123;SDS011;55741;53.252;5.788;2022-07-03T12:34:14;3.38;;;1.83;;
54123;SDS011;55741;53.252;5.788;2022-07-03T12:36:57;3.22;;;1.60;;
54123;SDS011;55741;53.252;5.788;2022-07-03T12:47:44;2.38;;;1.52;;
54123;SDS011;55741;53.252;5.788;2022-07-03T12:50:11;4.00;;;1.75;;
54123;SDS011;55741;53.252;5.788;2022-07-03T12:52:50;3.83;;;1.40;;
54123;SDS011;55741;53.252;5.788;2022-07-03T12:55:22;4.25;;;1.40;;
54123;SDS011;55741;53.252;5.788;2022-07-03T12:58:11;3.25;;;1.50;;
54123;SDS011;55741;53.252;5.788;2022-07-03T13:00:59;3.22;;;1.42;;
54123;SDS011;55741;53.252;5.788;2022-07-03T13:03:26;2.78;;;1.50;;
54123;SDS011;55741;53.252;5.788;2022-07-03T13:05:56;2.88;;;1.52;;
54123;SDS011;55741;53.252;5.788;2022-07-03T13:08:24;4.13;;;1.60;;
54123;SDS011;55741;53.252;5.788;2022-07-03T13:10:56;3.90;;;1.55;;
54123;SDS011;55741;53.252;5.788;2022-07-03T13:13:23;2.63;;;1.40;;
54123;SDS011;55741;53.252;5.788;2022-07-03T13:15:50;4.72;;;1.67;;
54123;SDS011;55741;53.252;5.788;2022-07-03T13:18:16;3.60;;;1.30;;
54123;SDS011;55741;53.252;5.788;2022-07-03T13:20:42;5.05;;;1.70;;
54123;SDS011;55741;53.252;5.788;2022-07-03T13:23:08;4.32;;;1.60;;
54123;SDS011;55741;53.252;5.788;2022-07-03T13:25:35;4.63;;;1.98;;
54123;SDS011;55741;53.252;5.788;2022-07-03T13:28:09;5.45;;;1.80;;
54123;SDS011;55741;53.252;5.788;2022-07-03T13:30:36;3.28;;;1.40;;
54123;SDS011;55741;53.252;5.788;2022-07-03T13:33:02;3.85;;;1.67;;
54123;SDS011;55741;53.252;5.788;2022-07-03T13:35:28;5.90;;;1.75;;
54123;SDS011;55741;53.252;5.788;2022-07-03T13:37:54;4.28;;;1.58;;
54123;SDS011;55741;53.252;5.788;2022-07-03T13:40:20;6.32;;;1.90;;
54123;SDS011;55741;53.252;5.788;2022-07-03T13:42:46;4.50;;;1.42;;
54123;SDS011;55741;53.252;5.788;2022-07-03T13:45:12;4.30;;;1.50;;
54123;SDS011;55741;53.252;5.788;2022-07-03T13:47:38;3.25;;;1.40;;
54123;SDS011;55741;53.252;5.788;2022-07-03T13:50:04;3.65;;;1.70;;
54123;SDS011;55741;53.252;5.788;2022-07-03T13:52:30;4.57;;;1.50;;
54123;SDS011;55741;53.252;5.788;2022-07-03T13:54:56;3.85;;;1.63;;
54123;SDS011;55741;53.252;5.788;2022-07-03T13:57:22;5.30;;;1.50;;
54123;SDS011;55741;53.252;5.788;2022-07-03T13:59:48;4.90;;;1.73;;
54123;SDS011;55741;53.252;5.788;2022-07-03T14:02:14;3.67;;;1.45;;
54123;SDS011;55741;53.252;5.788;2022-07-03T14:04:40;4.65;;;1.70;;
54123;SDS011;55741;53.252;5.788;2022-07-03T14:07:06;5.75;;;1.88;;
54123;SDS011;55741;53.252;5.788;2022-07-03T14:09:34;5.05;;;1.75;;
54123;SDS011;55741;53.252;5.788;2022-07-03T14:12:00;5.78;;;2.33;;
54123;SDS011;55741;53.252;5.788;2022-07-03T14:14:26;7.38;;;2.63;;
54123;SDS011;55741;53.252;5.788;2022-07-03T14:16:52;4.43;;;1.80;;
54123;SDS011;55741;53.252;5.788;2022-07-03T14:19:18;5.60;;;2.40;;
54123;SDS011;55741;53.252;5.788;2022-07-03T14:21:44;4.63;;;2.13;;
54123;SDS011;55741;53.252;5.788;2022-07-03T14:24:10;5.60;;;1.80;;
54123;SDS011;55741;53.252;5.788;2022-07-03T14:26:36;5.38;;;1.90;;
54123;SDS011;55741;53.252;5.788;2022-07-03T14:29:27;6.70;;;2.05;;
54123;SDS011;55741;53.252;5.788;2022-07-03T14:32:12;5.27;;;1.93;;
54123;SDS011;55741;53.252;5.788;2022-07-03T14:35:00;5.55;;;2.03;;
54123;SDS011;55741;53.252;5.788;2022-07-03T14:37:27;3.88;;;1.60;;
54123;SDS011;55741;53.252;5.788;2022-07-03T14:39:54;6.90;;;1.77;;
54123;SDS011;55741;53.252;5.788;2022-07-03T14:42:20;4.75;;;1.60;;
54123;SDS011;55741;53.252;5.788;2022-07-03T14:44:46;4.00;;;1.50;;
54123;SDS011;55741;53.252;5.788;2022-07-03T14:47:12;5.85;;;1.70;;
54123;SDS011;55741;53.252;5.788;2022-07-03T14:49:38;3.97;;;1.70;;
54123;SDS011;55741;53.252;5.788;2022-07-03T14:52:04;7.80;;;1.50;;
54123;SDS011;55741;53.252;5.788;2022-07-03T14:54:31;3.35;;;1.63;;
54123;SDS011;55741;53.252;5.788;2022-07-03T14:56:59;4.70;;;1.90;;
54123;SDS011;55741;53.252;5.788;2022-07-03T15:05:09;4.28;;;1.50;;
54123;SDS011;55741;53.252;5.788;2022-07-03T15:10:35;6.63;;;2.15;;
54123;SDS011;55741;53.252;5.788;2022-07-03T15:13:04;9.00;;;2.30;;
54123;SDS011;55741;53.252;5.788;2022-07-03T15:15:31;4.88;;;1.85;;
54123;SDS011;55741;53.252;5.788;2022-07-03T15:17:59;4.40;;;1.90;;
54123;SDS011;55741;53.252;5.788;2022-07-03T15:20:33;4.47;;;1.70;;
54123;SDS011;55741;53.252;5.788;2022-07-03T15:23:01;7.25;;;2.13;;
54123;SDS011;55741;53.252;5.788;2022-07-03T15:25:30;6.35;;;1.83;;
54123;SDS011;55741;53.252;5.788;2022-07-03T15:27:57;5.03;;;1.98;;
54123;SDS011;55741;53.252;5.788;2022-07-03T15:30:23;5.38;;;2.00;;
54123;SDS011;55741;53.252;5.788;2022-07-03T15:32:51;5.40;;;1.60;;
54123;SDS011;55741;53.252;5.788;2022-07-03T15:35:18;4.57;;;1.73;;
54123;SDS011;55741;53.252;5.788;2022-07-03T15:40:45;4.10;;;1.83;;
54123;SDS011;55741;53.252;5.788;2022-07-03T15:48:40;4.93;;;2.00;;
54123;SDS011;55741;53.252;5.788;2022-07-03T15:51:22;6.93;;;1.95;;
54123;SDS011;55741;53.252;5.788;2022-07-03T15:53:56;6.47;;;1.80;;
54123;SDS011;55741;53.252;5.788;2022-07-03T15:56:30;4.18;;;2.00;;
54123;SDS011;55741;53.252;5.788;2022-07-03T15:59:00;6.65;;;2.10;;
54123;SDS011;55741;53.252;5.788;2022-07-03T16:01:29;7.28;;;2.25;;
54123;SDS011;55741;53.252;5.788;2022-07-03T16:06:51;5.13;;;2.38;;
54123;SDS011;55741;53.252;5.788;2022-07-03T16:09:18;8.05;;;2.50;;
54123;SDS011;55741;53.252;5.788;2022-07-03T16:11:47;7.18;;;2.35;;
54123;SDS011;55741;53.252;5.788;2022-07-03T16:14:14;3.80;;;2.30;;
54123;SDS011;55741;53.252;5.788;2022-07-03T16:16:42;7.88;;;2.88;;
54123;SDS011;55741;53.252;5.788;2022-07-03T16:19:08;7.30;;;2.55;;
54123;SDS011;55741;53.252;5.788;2022-07-03T16:21:37;6.53;;;2.42;;
54123;SDS011;55741;53.252;5.788;2022-07-03T16:24:03;5.35;;;2.20;;
54123;SDS011;55741;53.252;5.788;2022-07-03T16:26:34;3.83;;;1.80;;
54123;SDS011;55741;53.252;5.788;2022-07-03T16:29:01;5.75;;;1.98;;
54123;SDS011;55741;53.252;5.788;2022-07-03T16:31:32;5.65;;;1.75;;
54123;SDS011;55741;53.252;5.788;2022-07-03T16:34:17;4.50;;;1.60;;
54123;SDS011;55741;53.252;5.788;2022-07-03T16:36:49;5.55;;;1.60;;
54123;SDS011;55741;53.252;5.788;2022-07-03T16:39:25;3.92;;;1.63;;
54123;SDS011;55741;53.252;5.788;2022-07-03T16:41:58;4.68;;;1.60;;
54123;SDS011;55741;53.252;5.788;2022-07-03T16:44:28;4.45;;;1.50;;
54123;SDS011;55741;53.252;5.788;2022-07-03T16:46:58;5.82;;;1.90;;